sensor_id;sensor_type;location;lat;lon;timestamp;temperature;humidity
43894;DHT22;29556;50.846;4.442;2022-08-07T00:01:08;17.30;64.90
43894;DHT22;29556;50.846;4.442;2022-08-07T00:03:33;17.30;65.30
43894;DHT22;29556;50.846;4.442;2022-08-07T00:05:59;17.30;65.80
43894;DHT22;29556;50.846;4.442;2022-08-07T00:08:25;17.30;65.50
43894;DHT22;29556;50.846;4.442;2022-08-07T00:10:51;17.20;65.60
43894;DHT22;29556;50.846;4.442;2022-08-07T00:13:18;17.20;65.80
43894;DHT22;29556;50.846;4.442;2022-08-07T00:15:45;17.20;65.80
43894;DHT22;29556;50.846;4.442;2022-08-07T00:18:11;17.20;66.10
43894;DHT22;29556;50.846;4.442;2022-08-07T00:20:38;17.20;66.10
43894;DHT22;29556;50.846;4.442;2022-08-07T00:23:04;17.20;66.40
43894;DHT22;29556;50.846;4.442;2022-08-07T00:25:34;17.10;66.40
43894;DHT22;29556;50.846;4.442;2022-08-07T00:27:59;17.10;66.60
43894;DHT22;29556;50.846;4.442;2022-08-07T00:30:26;17.10;66.80
43894;DHT22;29556;50.846;4.442;2022-08-07T00:32:56;17.10;66.90
43894;DHT22;29556;50.846;4.442;2022-08-07T00:35:22;17.10;67.20
43894;DHT22;29556;50.846;4.442;2022-08-07T00:37:48;17.10;67.20
43894;DHT22;29556;50.846;4.442;2022-08-07T00:40:14;17.00;67.30
43894;DHT22;29556;50.846;4.442;2022-08-07T00:42:40;17.00;67.40
43894;DHT22;29556;50.846;4.442;2022-08-07T00:45:07;17.00;67.60
43894;DHT22;29556;50.846;4.442;2022-08-07T00:47:33;17.00;67.60
43894;DHT22;29556;50.846;4.442;2022-08-07T00:49:58;16.90;67.90
43894;DHT22;29556;50.846;4.442;2022-08-07T00:52:24;16.90;68.90
43894;DHT22;29556;50.846;4.442;2022-08-07T00:54:51;16.90;68.20
43894;DHT22;29556;50.846;4.442;2022-08-07T00:57:17;16.90;68.30
43894;DHT22;29556;50.846;4.442;2022-08-07T00:59:43;16.90;68.40
43894;DHT22;29556;50.846;4.442;2022-08-07T01:02:10;16.90;68.50
43894;DHT22;29556;50.846;4.442;2022-08-07T01:04:37;16.90;68.60
43894;DHT22;29556;50.846;4.442;2022-08-07T01:07:03;16.80;68.60
43894;DHT22;29556;50.846;4.442;2022-08-07T01:09:29;16.80;68.60
43894;DHT22;29556;50.846;4.442;2022-08-07T01:11:56;16.80;68.80
43894;DHT22;29556;50.846;4.442;2022-08-07T01:14:22;16.80;69.00
43894;DHT22;29556;50.846;4.442;2022-08-07T01:16:49;16.80;69.10
43894;DHT22;29556;50.846;4.442;2022-08-07T01:19:16;16.70;69.40
43894;DHT22;29556;50.846;4.442;2022-08-07T01:21:43;16.70;69.30
43894;DHT22;29556;50.846;4.442;2022-08-07T01:24:10;16.70;69.60
43894;DHT22;29556;50.846;4.442;2022-08-07T01:26:36;16.70;69.60
43894;DHT22;29556;50.846;4.442;2022-08-07T01:29:03;16.70;69.80
43894;DHT22;29556;50.846;4.442;2022-08-07T01:31:29;16.60;69.90
43894;DHT22;29556;50.846;4.442;2022-08-07T01:34:01;16.60;69.90
43894;DHT22;29556;50.846;4.442;2022-08-07T01:36:28;16.60;70.00
43894;DHT22;29556;50.846;4.442;2022-08-07T01:38:55;16.70;70.20
43894;DHT22;29556;50.846;4.442;2022-08-07T01:41:21;16.60;70.20
43894;DHT22;29556;50.846;4.442;2022-08-07T01:43:48;16.60;70.30
43894;DHT22;29556;50.846;4.442;2022-08-07T01:46:15;16.60;70.30
43894;DHT22;29556;50.846;4.442;2022-08-07T01:48:42;16.60;70.30
43894;DHT22;29556;50.846;4.442;2022-08-07T01:51:11;16.60;71.30
43894;DHT22;29556;50.846;4.442;2022-08-07T01:53:49;16.50;70.70
43894;DHT22;29556;50.846;4.442;2022-08-07T01:56:30;16.50;71.00
43894;DHT22;29556;50.846;4.442;2022-08-07T02:02:00;16.50;70.90
43894;DHT22;29556;50.846;4.442;2022-08-07T02:04:57;16.50;71.00
43894;DHT22;29556;50.846;4.442;2022-08-07T02:07:29;16.40;71.40
43894;DHT22;29556;50.846;4.442;2022-08-07T02:09:57;16.40;71.50
43894;DHT22;29556;50.846;4.442;2022-08-07T02:12:26;16.40;71.60
43894;DHT22;29556;50.846;4.442;2022-08-07T02:14:55;16.50;71.60
43894;DHT22;29556;50.846;4.442;2022-08-07T02:17:22;16.40;71.70
43894;DHT22;29556;50.846;4.442;2022-08-07T02:19:51;16.40;71.80
43894;DHT22;29556;50.846;4.442;2022-08-07T02:22:18;16.40;71.90
43894;DHT22;29556;50.846;4.442;2022-08-07T02:24:46;16.40;71.90
43894;DHT22;29556;50.846;4.442;2022-08-07T02:27:14;16.40;72.00
43894;DHT22;29556;50.846;4.442;2022-08-07T02:29:42;16.40;72.00
43894;DHT22;29556;50.846;4.442;2022-08-07T02:32:09;16.40;72.40
43894;DHT22;29556;50.846;4.442;2022-08-07T02:34:36;16.30;72.20
43894;DHT22;29556;50.846;4.442;2022-08-07T02:37:04;16.30;72.40
43894;DHT22;29556;50.846;4.442;2022-08-07T02:39:34;16.30;72.20
43894;DHT22;29556;50.846;4.442;2022-08-07T02:42:01;16.30;72.20
43894;DHT22;29556;50.846;4.442;2022-08-07T02:44:27;16.40;72.30
43894;DHT22;29556;50.846;4.442;2022-08-07T02:46:56;16.30;72.50
43894;DHT22;29556;50.846;4.442;2022-08-07T02:49:23;16.30;72.80
43894;DHT22;29556;50.846;4.442;2022-08-07T02:51:49;16.20;72.80
43894;DHT22;29556;50.846;4.442;2022-08-07T02:54:19;16.20;72.90
43894;DHT22;29556;50.846;4.442;2022-08-07T02:56:47;16.20;73.00
43894;DHT22;29556;50.846;4.442;2022-08-07T02:59:17;16.20;73.20
43894;DHT22;29556;50.846;4.442;2022-08-07T03:01:43;16.20;73.20
43894;DHT22;29556;50.846;4.442;2022-08-07T03:04:11;16.20;73.50
43894;DHT22;29556;50.846;4.442;2022-08-07T03:06:38;16.10;73.30
43894;DHT22;29556;50.846;4.442;2022-08-07T03:09:05;16.10;73.20
43894;DHT22;29556;50.846;4.442;2022-08-07T03:11:33;16.10;73.10
43894;DHT22;29556;50.846;4.442;2022-08-07T03:14:01;16.10;73.30
43894;DHT22;29556;50.846;4.442;2022-08-07T03:16:32;16.10;73.30
43894;DHT22;29556;50.846;4.442;2022-08-07T03:18:58;16.10;73.40
43894;DHT22;29556;50.846;4.442;2022-08-07T03:21:24;16.00;73.70
43894;DHT22;29556;50.846;4.442;2022-08-07T03:23:54;16.10;73.50
43894;DHT22;29556;50.846;4.442;2022-08-07T03:26:23;16.00;73.70
43894;DHT22;29556;50.846;4.442;2022-08-07T03:28:50;16.00;73.60
43894;DHT22;29556;50.846;4.442;2022-08-07T03:31:17;16.00;73.70
43894;DHT22;29556;50.846;4.442;2022-08-07T03:33:47;16.10;73.80
43894;DHT22;29556;50.846;4.442;2022-08-07T03:36:14;15.90;73.60
43894;DHT22;29556;50.846;4.442;2022-08-07T03:38:41;15.90;74.00
43894;DHT22;29556;50.846;4.442;2022-08-07T03:41:08;15.90;74.10
43894;DHT22;29556;50.846;4.442;2022-08-07T03:43:35;15.90;73.90
43894;DHT22;29556;50.846;4.442;2022-08-07T03:46:02;15.90;74.20
43894;DHT22;29556;50.846;4.442;2022-08-07T03:48:31;15.80;74.00
43894;DHT22;29556;50.846;4.442;2022-08-07T03:50:58;15.80;74.10
43894;DHT22;29556;50.846;4.442;2022-08-07T03:53:24;15.80;74.30
43894;DHT22;29556;50.846;4.442;2022-08-07T03:55:50;15.80;74.40
43894;DHT22;29556;50.846;4.442;2022-08-07T03:58:19;15.80;74.60
43894;DHT22;29556;50.846;4.442;2022-08-07T04:00:48;15.80;74.50
43894;DHT22;29556;50.846;4.442;2022-08-07T04:03:14;15.80;74.50
43894;DHT22;29556;50.846;4.442;2022-08-07T04:05:40;15.80;74.30
43894;DHT22;29556;50.846;4.442;2022-08-07T04:08:09;15.80;74.40
43894;DHT22;29556;50.846;4.442;2022-08-07T04:10:37;15.80;74.60
43894;DHT22;29556;50.846;4.442;2022-08-07T04:13:03;15.80;74.40
43894;DHT22;29556;50.846;4.442;2022-08-07T04:15:29;15.80;74.60
43894;DHT22;29556;50.846;4.442;2022-08-07T04:17:55;15.70;74.60
43894;DHT22;29556;50.846;4.442;2022-08-07T04:20:21;15.70;75.40
43894;DHT22;29556;50.846;4.442;2022-08-07T04:22:47;15.70;74.70
43894;DHT22;29556;50.846;4.442;2022-08-07T04:25:14;15.70;74.70
43894;DHT22;29556;50.846;4.442;2022-08-07T04:27:40;15.70;74.90
43894;DHT22;29556;50.846;4.442;2022-08-07T04:30:06;15.70;75.00
43894;DHT22;29556;50.846;4.442;2022-08-07T04:32:33;15.70;75.00
43894;DHT22;29556;50.846;4.442;2022-08-07T04:35:03;15.70;75.10
43894;DHT22;29556;50.846;4.442;2022-08-07T04:37:31;15.80;75.20
43894;DHT22;29556;50.846;4.442;2022-08-07T04:39:57;15.70;75.30
43894;DHT22;29556;50.846;4.442;2022-08-07T04:42:22;15.70;75.30
43894;DHT22;29556;50.846;4.442;2022-08-07T04:44:54;15.70;75.60
43894;DHT22;29556;50.846;4.442;2022-08-07T04:47:46;15.70;75.50
43894;DHT22;29556;50.846;4.442;2022-08-07T04:50:52;15.70;75.60
43894;DHT22;29556;50.846;4.442;2022-08-07T04:53:20;15.70;75.60
43894;DHT22;29556;50.846;4.442;2022-08-07T04:55:52;15.70;75.90
43894;DHT22;29556;50.846;4.442;2022-08-07T04:58:21;15.60;76.00
43894;DHT22;29556;50.846;4.442;2022-08-07T05:00:56;15.70;75.80
43894;DHT22;29556;50.846;4.442;2022-08-07T05:04:08;15.60;75.80
43894;DHT22;29556;50.846;4.442;2022-08-07T05:06:23;15.70;76.10
43894;DHT22;29556;50.846;4.442;2022-08-07T05:09:03;15.70;76.30
43894;DHT22;29556;50.846;4.442;2022-08-07T05:11:44;15.70;76.20
43894;DHT22;29556;50.846;4.442;2022-08-07T05:16:43;15.70;76.20
43894;DHT22;29556;50.846;4.442;2022-08-07T05:19:23;15.70;77.30
43894;DHT22;29556;50.846;4.442;2022-08-07T05:21:58;15.80;76.50
43894;DHT22;29556;50.846;4.442;2022-08-07T05:24:25;15.80;76.40
43894;DHT22;29556;50.846;4.442;2022-08-07T05:26:56;15.90;76.60
43894;DHT22;29556;50.846;4.442;2022-08-07T05:29:23;15.80;76.60
43894;DHT22;29556;50.846;4.442;2022-08-07T05:31:50;15.90;76.80
43894;DHT22;29556;50.846;4.442;2022-08-07T05:34:16;15.90;76.90
43894;DHT22;29556;50.846;4.442;2022-08-07T05:36:46;15.90;76.80
43894;DHT22;29556;50.846;4.442;2022-08-07T05:39:15;16.00;77.00
43894;DHT22;29556;50.846;4.442;2022-08-07T05:41:44;16.00;76.90
43894;DHT22;29556;50.846;4.442;2022-08-07T05:44:12;16.00;76.80
43894;DHT22;29556;50.846;4.442;2022-08-07T05:46:39;16.10;76.80
43894;DHT22;29556;50.846;4.442;2022-08-07T05:49:08;16.10;76.80
43894;DHT22;29556;50.846;4.442;2022-08-07T05:51:36;16.20;76.90
43894;DHT22;29556;50.846;4.442;2022-08-07T05:54:01;16.20;76.80
43894;DHT22;29556;50.846;4.442;2022-08-07T05:56:29;16.20;76.90
43894;DHT22;29556;50.846;4.442;2022-08-07T05:58:57;16.20;76.90
43894;DHT22;29556;50.846;4.442;2022-08-07T06:01:25;16.30;76.90
43894;DHT22;29556;50.846;4.442;2022-08-07T06:03:54;16.30;76.70
43894;DHT22;29556;50.846;4.442;2022-08-07T06:06:20;16.40;76.70
43894;DHT22;29556;50.846;4.442;2022-08-07T06:08:48;16.40;76.80
43894;DHT22;29556;50.846;4.442;2022-08-07T06:11:14;16.40;76.80
43894;DHT22;29556;50.846;4.442;2022-08-07T06:13:40;16.50;76.90
43894;DHT22;29556;50.846;4.442;2022-08-07T06:16:07;16.50;76.50
43894;DHT22;29556;50.846;4.442;2022-08-07T06:18:33;16.60;76.50
43894;DHT22;29556;50.846;4.442;2022-08-07T06:21:00;16.60;76.60
43894;DHT22;29556;50.846;4.442;2022-08-07T06:23:28;16.60;76.80
43894;DHT22;29556;50.846;4.442;2022-08-07T06:25:55;16.70;76.70
43894;DHT22;29556;50.846;4.442;2022-08-07T06:28:20;16.70;76.20
43894;DHT22;29556;50.846;4.442;2022-08-07T06:30:46;16.70;75.20
43894;DHT22;29556;50.846;4.442;2022-08-07T06:33:13;16.80;76.10
43894;DHT22;29556;50.846;4.442;2022-08-07T06:35:38;16.80;75.30
43894;DHT22;29556;50.846;4.442;2022-08-07T06:38:05;16.80;75.50
43894;DHT22;29556;50.846;4.442;2022-08-07T06:40:45;16.80;75.40
43894;DHT22;29556;50.846;4.442;2022-08-07T06:43:12;16.90;75.50
43894;DHT22;29556;50.846;4.442;2022-08-07T06:45:40;16.90;75.50
43894;DHT22;29556;50.846;4.442;2022-08-07T06:48:06;17.00;75.70
43894;DHT22;29556;50.846;4.442;2022-08-07T06:50:33;17.00;75.70
43894;DHT22;29556;50.846;4.442;2022-08-07T06:53:02;17.00;76.20
43894;DHT22;29556;50.846;4.442;2022-08-07T06:55:29;17.00;75.40
43894;DHT22;29556;50.846;4.442;2022-08-07T06:58:05;17.10;75.50
43894;DHT22;29556;50.846;4.442;2022-08-07T07:00:37;17.20;75.70
43894;DHT22;29556;50.846;4.442;2022-08-07T07:03:03;17.20;75.10
43894;DHT22;29556;50.846;4.442;2022-08-07T07:05:30;17.20;74.50
43894;DHT22;29556;50.846;4.442;2022-08-07T07:07:57;17.30;75.10
43894;DHT22;29556;50.846;4.442;2022-08-07T07:10:30;17.30;75.00
43894;DHT22;29556;50.846;4.442;2022-08-07T07:13:13;17.30;74.10
43894;DHT22;29556;50.846;4.442;2022-08-07T07:15:45;17.40;74.40
43894;DHT22;29556;50.846;4.442;2022-08-07T07:20:48;17.40;73.60
43894;DHT22;29556;50.846;4.442;2022-08-07T07:23:15;17.50;73.70
43894;DHT22;29556;50.846;4.442;2022-08-07T07:25:42;17.50;73.40
43894;DHT22;29556;50.846;4.442;2022-08-07T07:28:26;17.60;74.00
43894;DHT22;29556;50.846;4.442;2022-08-07T07:30:59;17.70;73.70
43894;DHT22;29556;50.846;4.442;2022-08-07T07:33:26;17.70;73.50
43894;DHT22;29556;50.846;4.442;2022-08-07T07:35:53;17.70;73.60
43894;DHT22;29556;50.846;4.442;2022-08-07T07:38:22;17.80;73.80
43894;DHT22;29556;50.846;4.442;2022-08-07T07:40:48;17.90;72.60
43894;DHT22;29556;50.846;4.442;2022-08-07T07:43:16;18.00;73.40
43894;DHT22;29556;50.846;4.442;2022-08-07T07:45:44;18.00;72.60
43894;DHT22;29556;50.846;4.442;2022-08-07T07:48:14;18.00;72.50
43894;DHT22;29556;50.846;4.442;2022-08-07T07:50:42;18.00;72.10
43894;DHT22;29556;50.846;4.442;2022-08-07T07:53:10;18.10;72.00
43894;DHT22;29556;50.846;4.442;2022-08-07T07:55:36;18.20;72.30
43894;DHT22;29556;50.846;4.442;2022-08-07T07:58:06;18.20;72.30
43894;DHT22;29556;50.846;4.442;2022-08-07T08:00:32;18.20;72.10
43894;DHT22;29556;50.846;4.442;2022-08-07T08:03:18;18.30;72.20
43894;DHT22;29556;50.846;4.442;2022-08-07T08:05:50;18.30;71.30
43894;DHT22;29556;50.846;4.442;2022-08-07T08:08:17;18.30;71.00
43894;DHT22;29556;50.846;4.442;2022-08-07T08:10:43;18.40;71.00
43894;DHT22;29556;50.846;4.442;2022-08-07T08:13:11;18.50;70.90
43894;DHT22;29556;50.846;4.442;2022-08-07T08:15:39;18.50;70.70
43894;DHT22;29556;50.846;4.442;2022-08-07T08:18:09;18.50;70.50
43894;DHT22;29556;50.846;4.442;2022-08-07T08:20:38;18.60;70.80
43894;DHT22;29556;50.846;4.442;2022-08-07T08:23:06;18.70;70.50
43894;DHT22;29556;50.846;4.442;2022-08-07T08:25:52;18.70;70.40
43894;DHT22;29556;50.846;4.442;2022-08-07T08:28:40;18.80;69.70
43894;DHT22;29556;50.846;4.442;2022-08-07T08:31:09;18.90;68.30
43894;DHT22;29556;50.846;4.442;2022-08-07T08:33:36;18.90;68.80
43894;DHT22;29556;50.846;4.442;2022-08-07T08:36:05;18.90;68.10
43894;DHT22;29556;50.846;4.442;2022-08-07T08:38:36;19.00;68.40
43894;DHT22;29556;50.846;4.442;2022-08-07T08:44:36;19.00;68.30
43894;DHT22;29556;50.846;4.442;2022-08-07T08:46:47;19.00;68.20
43894;DHT22;29556;50.846;4.442;2022-08-07T08:52:24;19.10;68.70
43894;DHT22;29556;50.846;4.442;2022-08-07T08:57:55;19.30;68.20
43894;DHT22;29556;50.846;4.442;2022-08-07T09:00:25;19.20;67.20
43894;DHT22;29556;50.846;4.442;2022-08-07T09:02:57;19.30;67.10
43894;DHT22;29556;50.846;4.442;2022-08-07T09:05:46;19.40;67.00
43894;DHT22;29556;50.846;4.442;2022-08-07T09:11:18;19.60;66.10
43894;DHT22;29556;50.846;4.442;2022-08-07T09:17:00;19.60;65.70
43894;DHT22;29556;50.846;4.442;2022-08-07T09:19:54;19.60;65.80
43894;DHT22;29556;50.846;4.442;2022-08-07T09:30:22;19.80;65.30
43894;DHT22;29556;50.846;4.442;2022-08-07T09:36:00;19.90;64.30
43894;DHT22;29556;50.846;4.442;2022-08-07T09:38:44;19.90;63.10
43894;DHT22;29556;50.846;4.442;2022-08-07T09:47:16;20.10;61.90
43894;DHT22;29556;50.846;4.442;2022-08-07T09:50:03;20.10;61.70
43894;DHT22;29556;50.846;4.442;2022-08-07T09:52:41;20.10;61.80
43894;DHT22;29556;50.846;4.442;2022-08-07T09:55:25;20.20;61.90
43894;DHT22;29556;50.846;4.442;2022-08-07T10:12:11;20.50;59.80
43894;DHT22;29556;50.846;4.442;2022-08-07T10:26:22;20.50;59.30
43894;DHT22;29556;50.846;4.442;2022-08-07T10:41:43;20.80;57.50
43894;DHT22;29556;50.846;4.442;2022-08-07T10:44:17;20.90;56.80
43894;DHT22;29556;50.846;4.442;2022-08-07T10:50:15;21.00;56.40
43894;DHT22;29556;50.846;4.442;2022-08-07T10:52:55;20.90;55.50
43894;DHT22;29556;50.846;4.442;2022-08-07T10:55:30;21.00;56.20
43894;DHT22;29556;50.846;4.442;2022-08-07T10:58:02;21.10;55.70
43894;DHT22;29556;50.846;4.442;2022-08-07T11:00:35;21.10;54.80
43894;DHT22;29556;50.846;4.442;2022-08-07T11:03:13;21.20;55.00
43894;DHT22;29556;50.846;4.442;2022-08-07T11:11:08;21.20;52.70
43894;DHT22;29556;50.846;4.442;2022-08-07T11:13:53;21.20;53.90
43894;DHT22;29556;50.846;4.442;2022-08-07T11:16:22;21.30;54.60
43894;DHT22;29556;50.846;4.442;2022-08-07T11:21:41;21.30;54.30
43894;DHT22;29556;50.846;4.442;2022-08-07T11:30:05;21.50;52.50
43894;DHT22;29556;50.846;4.442;2022-08-07T11:35:21;21.60;52.50
43894;DHT22;29556;50.846;4.442;2022-08-07T11:38:08;21.50;51.00
43894;DHT22;29556;50.846;4.442;2022-08-07T11:43:31;21.60;52.50
43894;DHT22;29556;50.846;4.442;2022-08-07T11:54:29;21.70;50.90
43894;DHT22;29556;50.846;4.442;2022-08-07T12:08:25;21.80;51.50
43894;DHT22;29556;50.846;4.442;2022-08-07T12:10:59;21.90;51.80
43894;DHT22;29556;50.846;4.442;2022-08-07T12:13:40;22.00;51.60
43894;DHT22;29556;50.846;4.442;2022-08-07T12:16:15;22.00;51.20
43894;DHT22;29556;50.846;4.442;2022-08-07T12:21:36;22.00;48.30
43894;DHT22;29556;50.846;4.442;2022-08-07T12:24:16;22.10;49.10
43894;DHT22;29556;50.846;4.442;2022-08-07T12:26:49;22.10;49.40
43894;DHT22;29556;50.846;4.442;2022-08-07T12:32:19;21.90;47.10
43894;DHT22;29556;50.846;4.442;2022-08-07T12:34:46;22.10;49.20
43894;DHT22;29556;50.846;4.442;2022-08-07T12:37:15;22.20;48.70
43894;DHT22;29556;50.846;4.442;2022-08-07T12:39:44;22.30;48.10
43894;DHT22;29556;50.846;4.442;2022-08-07T12:42:13;22.30;48.00
43894;DHT22;29556;50.846;4.442;2022-08-07T12:44:43;22.40;48.40
43894;DHT22;29556;50.846;4.442;2022-08-07T12:47:22;22.40;48.60
43894;DHT22;29556;50.846;4.442;2022-08-07T12:55:16;22.60;47.60
43894;DHT22;29556;50.846;4.442;2022-08-07T12:57:46;22.60;47.80
43894;DHT22;29556;50.846;4.442;2022-08-07T13:00:12;22.60;48.20
43894;DHT22;29556;50.846;4.442;2022-08-07T13:02:47;22.60;48.50
43894;DHT22;29556;50.846;4.442;2022-08-07T13:05:37;22.60;48.20
43894;DHT22;29556;50.846;4.442;2022-08-07T13:11:28;22.70;47.20
43894;DHT22;29556;50.846;4.442;2022-08-07T13:14:50;22.70;47.10
43894;DHT22;29556;50.846;4.442;2022-08-07T13:17:37;22.70;47.50
43894;DHT22;29556;50.846;4.442;2022-08-07T13:20:18;22.80;47.30
43894;DHT22;29556;50.846;4.442;2022-08-07T13:22:59;22.80;47.30
43894;DHT22;29556;50.846;4.442;2022-08-07T13:25:35;22.80;46.70
43894;DHT22;29556;50.846;4.442;2022-08-07T13:28:09;22.90;47.70
43894;DHT22;29556;50.846;4.442;2022-08-07T13:30:41;22.80;47.20
43894;DHT22;29556;50.846;4.442;2022-08-07T13:33:26;22.90;47.50
43894;DHT22;29556;50.846;4.442;2022-08-07T13:36:03;22.90;47.20
43894;DHT22;29556;50.846;4.442;2022-08-07T13:38:50;23.00;46.00
43894;DHT22;29556;50.846;4.442;2022-08-07T13:41:41;23.00;46.30
43894;DHT22;29556;50.846;4.442;2022-08-07T13:44:09;23.10;46.50
43894;DHT22;29556;50.846;4.442;2022-08-07T13:46:44;23.10;46.30
43894;DHT22;29556;50.846;4.442;2022-08-07T13:49:15;23.10;46.80
43894;DHT22;29556;50.846;4.442;2022-08-07T13:51:44;23.10;46.70
43894;DHT22;29556;50.846;4.442;2022-08-07T13:54:12;23.10;46.70
43894;DHT22;29556;50.846;4.442;2022-08-07T13:56:40;23.10;46.60
43894;DHT22;29556;50.846;4.442;2022-08-07T13:59:16;23.20;46.30
43894;DHT22;29556;50.846;4.442;2022-08-07T14:01:51;23.20;45.60
43894;DHT22;29556;50.846;4.442;2022-08-07T14:04:17;23.20;45.70
43894;DHT22;29556;50.846;4.442;2022-08-07T14:06:46;23.30;46.00
43894;DHT22;29556;50.846;4.442;2022-08-07T14:09:23;23.20;46.30
43894;DHT22;29556;50.846;4.442;2022-08-07T14:11:51;23.30;46.40
43894;DHT22;29556;50.846;4.442;2022-08-07T14:14:19;23.30;46.30
43894;DHT22;29556;50.846;4.442;2022-08-07T14:16:49;23.40;46.10
43894;DHT22;29556;50.846;4.442;2022-08-07T14:19:37;23.40;45.00
43894;DHT22;29556;50.846;4.442;2022-08-07T14:22:10;23.40;45.30
43894;DHT22;29556;50.846;4.442;2022-08-07T14:24:41;23.40;44.30
43894;DHT22;29556;50.846;4.442;2022-08-07T14:27:13;23.50;44.50
43894;DHT22;29556;50.846;4.442;2022-08-07T14:29:46;23.40;44.90
43894;DHT22;29556;50.846;4.442;2022-08-07T14:32:12;23.50;45.20
43894;DHT22;29556;50.846;4.442;2022-08-07T14:34:42;23.50;45.20
43894;DHT22;29556;50.846;4.442;2022-08-07T14:37:10;23.50;44.90
43894;DHT22;29556;50.846;4.442;2022-08-07T14:39:39;23.50;45.50
43894;DHT22;29556;50.846;4.442;2022-08-07T14:42:08;23.60;45.30
43894;DHT22;29556;50.846;4.442;2022-08-07T14:44:37;23.70;45.10
43894;DHT22;29556;50.846;4.442;2022-08-07T14:47:06;23.70;45.20
43894;DHT22;29556;50.846;4.442;2022-08-07T14:49:33;23.70;45.60
43894;DHT22;29556;50.846;4.442;2022-08-07T14:52:00;23.70;45.80
43894;DHT22;29556;50.846;4.442;2022-08-07T14:54:32;23.70;45.70
43894;DHT22;29556;50.846;4.442;2022-08-07T14:56:59;23.80;46.00
43894;DHT22;29556;50.846;4.442;2022-08-07T14:59:25;23.70;46.10
43894;DHT22;29556;50.846;4.442;2022-08-07T15:01:55;23.80;46.10
43894;DHT22;29556;50.846;4.442;2022-08-07T15:04:22;23.80;46.00
43894;DHT22;29556;50.846;4.442;2022-08-07T15:06:50;23.80;46.10
43894;DHT22;29556;50.846;4.442;2022-08-07T15:09:17;23.80;45.50
43894;DHT22;29556;50.846;4.442;2022-08-07T15:12:08;23.80;45.00
43894;DHT22;29556;50.846;4.442;2022-08-07T15:14:35;23.90;45.10
43894;DHT22;29556;50.846;4.442;2022-08-07T15:17:08;23.80;45.50
43894;DHT22;29556;50.846;4.442;2022-08-07T15:19:37;23.90;45.80
43894;DHT22;29556;50.846;4.442;2022-08-07T15:22:11;23.90;45.80
43894;DHT22;29556;50.846;4.442;2022-08-07T15:24:39;23.90;46.00
43894;DHT22;29556;50.846;4.442;2022-08-07T15:27:21;23.90;45.80
43894;DHT22;29556;50.846;4.442;2022-08-07T15:29:58;23.90;46.00
43894;DHT22;29556;50.846;4.442;2022-08-07T15:32:25;24.10;45.10
43894;DHT22;29556;50.846;4.442;2022-08-07T15:34:54;24.00;45.50
43894;DHT22;29556;50.846;4.442;2022-08-07T15:37:25;24.10;45.80
43894;DHT22;29556;50.846;4.442;2022-08-07T15:39:58;24.10;45.60
43894;DHT22;29556;50.846;4.442;2022-08-07T15:42:35;24.10;45.30
43894;DHT22;29556;50.846;4.442;2022-08-07T15:45:03;24.10;45.60
43894;DHT22;29556;50.846;4.442;2022-08-07T15:47:34;24.10;45.80
43894;DHT22;29556;50.846;4.442;2022-08-07T15:50:02;24.10;45.60
43894;DHT22;29556;50.846;4.442;2022-08-07T15:52:29;24.10;45.20
43894;DHT22;29556;50.846;4.442;2022-08-07T15:54:55;24.20;45.20
43894;DHT22;29556;50.846;4.442;2022-08-07T15:57:27;24.20;45.10
43894;DHT22;29556;50.846;4.442;2022-08-07T15:59:56;24.20;45.40
43894;DHT22;29556;50.846;4.442;2022-08-07T16:02:25;24.20;45.70
43894;DHT22;29556;50.846;4.442;2022-08-07T16:05:07;24.20;45.70
43894;DHT22;29556;50.846;4.442;2022-08-07T16:07:40;24.20;45.00
43894;DHT22;29556;50.846;4.442;2022-08-07T16:10:16;24.30;45.70
43894;DHT22;29556;50.846;4.442;2022-08-07T16:15:40;24.40;44.40
43894;DHT22;29556;50.846;4.442;2022-08-07T16:18:15;24.50;43.70
43894;DHT22;29556;50.846;4.442;2022-08-07T16:21:00;24.50;44.00
43894;DHT22;29556;50.846;4.442;2022-08-07T16:32:02;24.30;43.80
43894;DHT22;29556;50.846;4.442;2022-08-07T16:34:49;24.40;44.10
43894;DHT22;29556;50.846;4.442;2022-08-07T16:49:11;24.40;44.80
43894;DHT22;29556;50.846;4.442;2022-08-07T16:54:22;24.20;45.10
43894;DHT22;29556;50.846;4.442;2022-08-07T16:59:43;24.20;44.70
43894;DHT22;29556;50.846;4.442;2022-08-07T17:02:39;24.30;45.40
43894;DHT22;29556;50.846;4.442;2022-08-07T17:07:56;24.30;45.60
43894;DHT22;29556;50.846;4.442;2022-08-07T17:21:28;24.30;46.00
43894;DHT22;29556;50.846;4.442;2022-08-07T17:27:04;24.30;46.40
43894;DHT22;29556;50.846;4.442;2022-08-07T17:30:04;24.10;47.00
43894;DHT22;29556;50.846;4.442;2022-08-07T17:32:44;24.10;47.30
43894;DHT22;29556;50.846;4.442;2022-08-07T17:35:17;24.20;48.20
43894;DHT22;29556;50.846;4.442;2022-08-07T17:38:22;24.10;48.10
43894;DHT22;29556;50.846;4.442;2022-08-07T17:43:32;24.10;48.20
43894;DHT22;29556;50.846;4.442;2022-08-07T17:46:13;23.90;47.60
43894;DHT22;29556;50.846;4.442;2022-08-07T17:48:57;23.80;48.50
43894;DHT22;29556;50.846;4.442;2022-08-07T17:51:33;23.80;48.60
43894;DHT22;29556;50.846;4.442;2022-08-07T17:54:21;23.80;48.60
43894;DHT22;29556;50.846;4.442;2022-08-07T17:56:51;23.70;48.90
43894;DHT22;29556;50.846;4.442;2022-08-07T17:59:24;23.70;48.50
43894;DHT22;29556;50.846;4.442;2022-08-07T18:02:06;23.60;48.80
43894;DHT22;29556;50.846;4.442;2022-08-07T18:04:46;23.50;49.40
43894;DHT22;29556;50.846;4.442;2022-08-07T18:09:57;23.40;49.60
43894;DHT22;29556;50.846;4.442;2022-08-07T18:15:26;23.20;49.80
43894;DHT22;29556;50.846;4.442;2022-08-07T18:18:09;23.20;50.20
43894;DHT22;29556;50.846;4.442;2022-08-07T18:21:00;23.20;50.60
43894;DHT22;29556;50.846;4.442;2022-08-07T18:23:50;23.10;50.80
43894;DHT22;29556;50.846;4.442;2022-08-07T18:26:22;23.10;50.80
43894;DHT22;29556;50.846;4.442;2022-08-07T18:34:31;23.00;50.90
43894;DHT22;29556;50.846;4.442;2022-08-07T18:40:19;22.80;51.20
43894;DHT22;29556;50.846;4.442;2022-08-07T18:43:08;22.80;51.60
43894;DHT22;29556;50.846;4.442;2022-08-07T18:51:18;22.60;51.30
43894;DHT22;29556;50.846;4.442;2022-08-07T18:56:42;22.50;52.20
43894;DHT22;29556;50.846;4.442;2022-08-07T18:59:16;22.40;52.50
43894;DHT22;29556;50.846;4.442;2022-08-07T19:01:48;22.40;53.00
43894;DHT22;29556;50.846;4.442;2022-08-07T19:07:06;22.20;52.90
43894;DHT22;29556;50.846;4.442;2022-08-07T19:10:11;22.20;53.00
43894;DHT22;29556;50.846;4.442;2022-08-07T19:12:46;22.10;52.70
43894;DHT22;29556;50.846;4.442;2022-08-07T19:18:34;22.00;53.90
43894;DHT22;29556;50.846;4.442;2022-08-07T19:23:47;21.80;54.50
43894;DHT22;29556;50.846;4.442;2022-08-07T19:26:15;21.70;53.80
43894;DHT22;29556;50.846;4.442;2022-08-07T19:28:48;21.60;54.40
43894;DHT22;29556;50.846;4.442;2022-08-07T19:31:21;21.50;54.40
43894;DHT22;29556;50.846;4.442;2022-08-07T19:33:49;21.50;54.40